FYI13P LFBO-LEMD
Flight info
| Callsign | FYI13P |
|---|---|
| Flight time | 1h 3m |
| Altitude | 37000 |
| Route | GAUDE DCT TIVLI DCT ELSAP DCT ZAR DCT KONKE DCT TERSA |
| Aircraft | A320/M-SDE3FGHIRWY/LB1 |
Departure
| Time | 2026-05-05 19:25 |
|---|---|
| Airport | Toulouse-Blagnac Airport (LFBO) |
Arrival
| Time | 2026-05-05 20:28 |
|---|---|
| Airport | Adolfo Suárez Madrid–Barajas Airport (LEMD) |
| Time | Latitude | Longitude | Altitude | Speed | Heading |
|---|---|---|---|---|---|
| 2026-05-05 18:53 | 43.62980 | 1.37319 | 494 ft | 0 kts | 44° |
| 2026-05-05 19:00 | 43.62980 | 1.37318 | 494 ft | 0 kts | 44° |
| 2026-05-05 19:14 | 43.62975 | 1.37311 | 485 ft | 4 kts | 44° |
| 2026-05-05 19:14 | 43.62955 | 1.37286 | 485 ft | 4 kts | 43° |
| 2026-05-05 19:14 | 43.62939 | 1.37265 | 489 ft | 4 kts | 48° |
| 2026-05-05 19:15 | 43.62929 | 1.37236 | 484 ft | 4 kts | 103° |
| 2026-05-05 19:15 | 43.62941 | 1.37209 | 490 ft | 3 kts | 142° |
| 2026-05-05 19:15 | 43.62962 | 1.37187 | 484 ft | 4 kts | 142° |
| 2026-05-05 19:15 | 43.62967 | 1.37182 | 491 ft | 0 kts | 142° |
| 2026-05-05 19:18 | 43.62961 | 1.37189 | 486 ft | 3 kts | 142° |
| 2026-05-05 19:19 | 43.62929 | 1.37206 | 488 ft | 8 kts | 179° |
| 2026-05-05 19:19 | 43.62876 | 1.37148 | 489 ft | 12 kts | 231° |
| 2026-05-05 19:19 | 43.62822 | 1.37063 | 489 ft | 13 kts | 210° |
| 2026-05-05 19:19 | 43.62740 | 1.37110 | 491 ft | 15 kts | 142° |
| 2026-05-05 19:20 | 43.62649 | 1.37204 | 488 ft | 18 kts | 143° |
| 2026-05-05 19:20 | 43.62543 | 1.37313 | 489 ft | 20 kts | 142° |
| 2026-05-05 19:20 | 43.62425 | 1.37437 | 494 ft | 23 kts | 143° |
| 2026-05-05 19:20 | 43.62299 | 1.37568 | 492 ft | 22 kts | 143° |
| 2026-05-05 19:21 | 43.62188 | 1.37683 | 489 ft | 19 kts | 143° |
| 2026-05-05 19:21 | 43.62073 | 1.37800 | 489 ft | 22 kts | 143° |
| 2026-05-05 19:21 | 43.61962 | 1.37917 | 490 ft | 19 kts | 143° |
| 2026-05-05 19:21 | 43.61860 | 1.38023 | 489 ft | 15 kts | 143° |
| 2026-05-05 19:22 | 43.61786 | 1.38100 | 492 ft | 15 kts | 143° |
| 2026-05-05 19:22 | 43.61705 | 1.38175 | 487 ft | 14 kts | 160° |
| 2026-05-05 19:22 | 43.61637 | 1.38134 | 488 ft | 0 kts | 230° |
| 2026-05-05 19:22 | 43.61633 | 1.38127 | 489 ft | 2 kts | 230° |
| 2026-05-05 19:23 | 43.61611 | 1.38088 | 488 ft | 9 kts | 233° |
| 2026-05-05 19:23 | 43.61581 | 1.38012 | 488 ft | 9 kts | 272° |
| 2026-05-05 19:23 | 43.61604 | 1.37981 | 486 ft | 0 kts | 323° |
| 2026-05-05 19:24 | 43.61621 | 1.37963 | 488 ft | 17 kts | 323° |
| 2026-05-05 19:24 | 43.61937 | 1.37633 | 489 ft | 93 kts | 323° |
| 2026-05-05 19:24 | 43.62620 | 1.36920 | 486 ft | 150 kts | 323° |
| 2026-05-05 19:24 | 43.63552 | 1.35963 | 778 ft | 171 kts | 322° |
| 2026-05-05 19:25 | 43.64495 | 1.35006 | 1620 ft | 165 kts | 319° |
| 2026-05-05 19:25 | 43.65384 | 1.34026 | 2328 ft | 167 kts | 317° |
| 2026-05-05 19:25 | 43.66315 | 1.32933 | 2729 ft | 183 kts | 317° |
| 2026-05-05 19:25 | 43.67339 | 1.31754 | 3087 ft | 203 kts | 319° |
| 2026-05-05 19:26 | 43.68450 | 1.30368 | 3451 ft | 227 kts | 307° |
| 2026-05-05 19:26 | 43.69409 | 1.28516 | 3952 ft | 248 kts | 306° |
| 2026-05-05 19:26 | 43.70399 | 1.26552 | 4745 ft | 253 kts | 294° |
| 2026-05-05 19:26 | 43.70719 | 1.24165 | 5652 ft | 258 kts | 267° |
| 2026-05-05 19:27 | 43.70274 | 1.21756 | 6505 ft | 264 kts | 245° |
| 2026-05-05 19:27 | 43.69199 | 1.19685 | 7341 ft | 270 kts | 225° |
| 2026-05-05 19:27 | 43.67613 | 1.18270 | 8182 ft | 276 kts | 202° |
| 2026-05-05 19:27 | 43.65707 | 1.17820 | 9040 ft | 284 kts | 179° |
| 2026-05-05 19:28 | 43.63734 | 1.18196 | 9906 ft | 287 kts | 173° |
| 2026-05-05 19:28 | 43.61718 | 1.18478 | 10371 ft | 301 kts | 185° |
| 2026-05-05 19:28 | 43.59553 | 1.18238 | 10648 ft | 321 kts | 187° |
| 2026-05-05 19:28 | 43.57302 | 1.17927 | 11266 ft | 328 kts | 192° |
| 2026-05-05 19:29 | 43.55161 | 1.16877 | 11966 ft | 329 kts | 207° |
| 2026-05-05 19:29 | 43.53141 | 1.15453 | 12705 ft | 332 kts | 209° |
| 2026-05-05 19:29 | 43.51130 | 1.13855 | 13427 ft | 335 kts | 214° |
| 2026-05-05 19:29 | 43.49173 | 1.12069 | 13869 ft | 339 kts | 215° |
| 2026-05-05 19:30 | 43.47226 | 1.10245 | 13968 ft | 339 kts | 216° |
| 2026-05-05 19:30 | 43.45300 | 1.08384 | 13987 ft | 338 kts | 216° |
| 2026-05-05 19:30 | 43.43388 | 1.06495 | 13992 ft | 338 kts | 217° |
| 2026-05-05 19:30 | 43.41488 | 1.04590 | 13988 ft | 339 kts | 217° |
| 2026-05-05 19:31 | 43.39589 | 1.02676 | 13993 ft | 339 kts | 217° |
| 2026-05-05 19:31 | 43.37686 | 1.00760 | 13991 ft | 339 kts | 217° |
| 2026-05-05 19:31 | 43.35802 | 0.98870 | 13991 ft | 340 kts | 217° |
| 2026-05-05 19:31 | 43.33896 | 0.96961 | 13994 ft | 339 kts | 217° |
| 2026-05-05 19:32 | 43.31983 | 0.95052 | 14012 ft | 340 kts | 217° |
| 2026-05-05 19:32 | 43.30056 | 0.93128 | 14604 ft | 343 kts | 217° |
| 2026-05-05 19:32 | 43.28115 | 0.91204 | 15310 ft | 345 kts | 217° |
| 2026-05-05 19:32 | 43.26165 | 0.89281 | 15996 ft | 347 kts | 217° |
| 2026-05-05 19:33 | 43.24198 | 0.87344 | 16671 ft | 349 kts | 217° |
| 2026-05-05 19:33 | 43.22223 | 0.85403 | 17327 ft | 351 kts | 217° |
| 2026-05-05 19:33 | 43.20232 | 0.83449 | 17990 ft | 353 kts | 217° |
| 2026-05-05 19:33 | 43.18258 | 0.81514 | 18589 ft | 355 kts | 216° |
| 2026-05-05 19:34 | 43.16242 | 0.79544 | 19152 ft | 357 kts | 216° |
| 2026-05-05 19:34 | 43.14217 | 0.77566 | 19715 ft | 359 kts | 216° |
| 2026-05-05 19:34 | 43.12182 | 0.75574 | 20261 ft | 361 kts | 217° |
| 2026-05-05 19:35 | 43.08050 | 0.71525 | 21232 ft | 369 kts | 217° |
| 2026-05-05 19:35 | 43.05959 | 0.69478 | 21746 ft | 371 kts | 217° |
| 2026-05-05 19:35 | 43.03853 | 0.67421 | 22263 ft | 373 kts | 217° |
| 2026-05-05 19:35 | 43.01913 | 0.65138 | 22745 ft | 374 kts | 228° |
| 2026-05-05 19:36 | 43.00344 | 0.62303 | 23299 ft | 374 kts | 239° |
| 2026-05-05 19:36 | 42.99246 | 0.59084 | 23769 ft | 376 kts | 251° |
| 2026-05-05 19:36 | 42.98576 | 0.55638 | 24184 ft | 378 kts | 255° |
| 2026-05-05 19:36 | 42.97954 | 0.52125 | 24574 ft | 380 kts | 255° |
| 2026-05-05 19:37 | 42.97330 | 0.48613 | 24964 ft | 381 kts | 255° |
| 2026-05-05 19:37 | 42.96702 | 0.45093 | 25342 ft | 383 kts | 255° |
| 2026-05-05 19:37 | 42.96069 | 0.41552 | 25731 ft | 385 kts | 255° |
| 2026-05-05 19:37 | 42.95434 | 0.37997 | 26131 ft | 387 kts | 255° |
| 2026-05-05 19:38 | 42.94802 | 0.34471 | 26455 ft | 389 kts | 255° |
| 2026-05-05 19:38 | 42.94158 | 0.30874 | 26799 ft | 391 kts | 255° |
| 2026-05-05 19:38 | 42.93510 | 0.27261 | 27185 ft | 393 kts | 255° |
| 2026-05-05 19:38 | 42.92858 | 0.23635 | 27553 ft | 394 kts | 255° |
| 2026-05-05 19:39 | 42.92201 | 0.19992 | 27926 ft | 396 kts | 255° |
| 2026-05-05 19:39 | 42.91541 | 0.16337 | 28290 ft | 398 kts | 255° |
| 2026-05-05 19:39 | 42.90876 | 0.12663 | 28659 ft | 400 kts | 255° |
| 2026-05-05 19:39 | 42.90217 | 0.09026 | 29025 ft | 401 kts | 255° |
| 2026-05-05 19:40 | 42.89541 | 0.05321 | 29384 ft | 403 kts | 255° |
| 2026-05-05 19:40 | 42.88863 | 0.01610 | 29723 ft | 405 kts | 255° |
| 2026-05-05 19:40 | 42.88177 | -0.02127 | 30064 ft | 407 kts | 255° |
| 2026-05-05 19:40 | 42.87487 | -0.05881 | 30290 ft | 409 kts | 255° |
| 2026-05-05 19:41 | 42.86792 | -0.09659 | 30530 ft | 412 kts | 255° |
| 2026-05-05 19:41 | 42.86096 | -0.13451 | 30727 ft | 413 kts | 255° |
| 2026-05-05 19:41 | 42.85396 | -0.17261 | 30965 ft | 415 kts | 255° |
| 2026-05-05 19:41 | 42.84703 | -0.21032 | 31219 ft | 416 kts | 255° |
| 2026-05-05 19:42 | 42.84003 | -0.24837 | 31564 ft | 415 kts | 255° |
| 2026-05-05 19:42 | 42.83297 | -0.28650 | 31910 ft | 414 kts | 255° |
| 2026-05-05 19:42 | 42.82590 | -0.32451 | 32266 ft | 413 kts | 255° |
| 2026-05-05 19:42 | 42.81751 | -0.36175 | 32603 ft | 412 kts | 247° |
| 2026-05-05 19:43 | 42.80427 | -0.39626 | 32939 ft | 412 kts | 237° |
| 2026-05-05 19:43 | 42.78639 | -0.42672 | 33270 ft | 413 kts | 227° |
| 2026-05-05 19:43 | 42.76445 | -0.45205 | 33582 ft | 416 kts | 217° |
| 2026-05-05 19:43 | 42.73912 | -0.47136 | 33900 ft | 420 kts | 207° |
| 2026-05-05 19:44 | 42.71188 | -0.48596 | 34163 ft | 421 kts | 205° |
| 2026-05-05 19:44 | 42.68493 | -0.50006 | 34439 ft | 421 kts | 205° |
| 2026-05-05 19:44 | 42.65757 | -0.51436 | 34681 ft | 421 kts | 205° |
| 2026-05-05 19:44 | 42.63018 | -0.52868 | 34904 ft | 422 kts | 205° |
| 2026-05-05 19:45 | 42.60277 | -0.54297 | 35124 ft | 422 kts | 205° |
| 2026-05-05 19:45 | 42.57542 | -0.55726 | 35381 ft | 421 kts | 205° |
| 2026-05-05 19:45 | 42.54816 | -0.57159 | 35603 ft | 421 kts | 205° |
| 2026-05-05 19:45 | 42.52087 | -0.58593 | 35820 ft | 421 kts | 205° |
| 2026-05-05 19:46 | 42.49351 | -0.60028 | 36028 ft | 421 kts | 205° |
| 2026-05-05 19:46 | 42.46621 | -0.61453 | 36234 ft | 421 kts | 205° |
| 2026-05-05 19:46 | 42.43920 | -0.62859 | 36436 ft | 421 kts | 205° |
| 2026-05-05 19:46 | 42.41183 | -0.64283 | 36630 ft | 421 kts | 205° |
| 2026-05-05 19:47 | 42.38450 | -0.65708 | 36832 ft | 421 kts | 205° |
| 2026-05-05 19:47 | 42.35714 | -0.67135 | 36944 ft | 422 kts | 205° |
| 2026-05-05 19:47 | 42.32976 | -0.68563 | 36972 ft | 422 kts | 205° |
| 2026-05-05 19:48 | 42.27507 | -0.71411 | 36969 ft | 421 kts | 205° |
| 2026-05-05 19:48 | 42.22041 | -0.74249 | 36970 ft | 421 kts | 205° |
| 2026-05-05 19:49 | 42.16611 | -0.77058 | 36974 ft | 421 kts | 205° |
| 2026-05-05 19:49 | 42.11132 | -0.79875 | 36971 ft | 422 kts | 205° |
| 2026-05-05 19:50 | 42.05651 | -0.82692 | 36971 ft | 422 kts | 205° |
| 2026-05-05 19:50 | 42.00171 | -0.85509 | 36972 ft | 422 kts | 205° |
| 2026-05-05 19:51 | 41.94693 | -0.88333 | 36971 ft | 421 kts | 205° |
| 2026-05-05 19:51 | 41.89254 | -0.91128 | 36975 ft | 421 kts | 205° |
| 2026-05-05 19:52 | 41.83774 | -0.93920 | 36978 ft | 421 kts | 205° |
| 2026-05-05 19:52 | 41.78302 | -0.96709 | 36975 ft | 421 kts | 205° |
| 2026-05-05 19:53 | 41.72837 | -0.99500 | 36975 ft | 419 kts | 206° |
| 2026-05-05 19:53 | 41.67446 | -1.02325 | 36974 ft | 416 kts | 211° |
| 2026-05-05 19:54 | 41.63140 | -1.06287 | 36976 ft | 407 kts | 226° |
| 2026-05-05 19:54 | 41.58943 | -1.11385 | 36976 ft | 408 kts | 225° |
| 2026-05-05 19:55 | 41.54728 | -1.16451 | 36965 ft | 407 kts | 226° |
| 2026-05-05 19:55 | 41.50528 | -1.21499 | 36986 ft | 406 kts | 226° |
| 2026-05-05 19:56 | 41.46364 | -1.26495 | 37004 ft | 405 kts | 226° |
| 2026-05-05 19:56 | 41.42174 | -1.31521 | 37008 ft | 405 kts | 226° |
| 2026-05-05 19:57 | 41.37985 | -1.36546 | 37008 ft | 405 kts | 226° |
| 2026-05-05 19:57 | 41.33790 | -1.41558 | 36972 ft | 405 kts | 226° |
| 2026-05-05 19:57 | 41.31722 | -1.44023 | 36690 ft | 404 kts | 226° |
| 2026-05-05 19:58 | 41.29615 | -1.46539 | 35700 ft | 409 kts | 226° |
| 2026-05-05 19:58 | 41.27504 | -1.49053 | 34693 ft | 406 kts | 227° |
| 2026-05-05 19:58 | 41.25415 | -1.51535 | 33829 ft | 399 kts | 227° |
| 2026-05-05 19:58 | 41.23368 | -1.53961 | 32923 ft | 390 kts | 228° |
| 2026-05-05 19:59 | 41.21362 | -1.56336 | 32039 ft | 382 kts | 229° |
| 2026-05-05 19:59 | 41.19404 | -1.58652 | 31373 ft | 371 kts | 229° |
| 2026-05-05 19:59 | 41.17531 | -1.60859 | 31060 ft | 351 kts | 229° |
| 2026-05-05 19:59 | 41.15731 | -1.62986 | 30689 ft | 344 kts | 230° |
| 2026-05-05 20:00 | 41.13965 | -1.65087 | 30273 ft | 338 kts | 230° |
| 2026-05-05 20:00 | 41.12249 | -1.67127 | 29855 ft | 334 kts | 230° |
| 2026-05-05 20:00 | 41.10535 | -1.69161 | 29467 ft | 326 kts | 230° |
| 2026-05-05 20:00 | 41.08858 | -1.71144 | 29114 ft | 320 kts | 230° |
| 2026-05-05 20:01 | 41.07208 | -1.73094 | 28758 ft | 315 kts | 230° |
| 2026-05-05 20:01 | 41.05588 | -1.75001 | 28414 ft | 309 kts | 230° |
| 2026-05-05 20:01 | 41.03993 | -1.76882 | 28077 ft | 304 kts | 230° |
| 2026-05-05 20:01 | 41.02421 | -1.78738 | 27716 ft | 302 kts | 230° |
| 2026-05-05 20:02 | 41.00815 | -1.80651 | 27325 ft | 318 kts | 230° |
| 2026-05-05 20:02 | 40.99171 | -1.82605 | 26925 ft | 324 kts | 229° |
| 2026-05-05 20:02 | 40.97481 | -1.84595 | 26512 ft | 326 kts | 229° |
| 2026-05-05 20:02 | 40.95786 | -1.86585 | 26086 ft | 326 kts | 229° |
| 2026-05-05 20:03 | 40.94087 | -1.88573 | 25662 ft | 325 kts | 229° |
| 2026-05-05 20:03 | 40.92392 | -1.90557 | 25228 ft | 325 kts | 229° |
| 2026-05-05 20:03 | 40.90700 | -1.92533 | 24789 ft | 324 kts | 229° |
| 2026-05-05 20:03 | 40.89014 | -1.94499 | 24305 ft | 323 kts | 230° |
| 2026-05-05 20:04 | 40.87338 | -1.96453 | 23887 ft | 320 kts | 230° |
| 2026-05-05 20:04 | 40.85697 | -1.98374 | 23432 ft | 318 kts | 230° |
| 2026-05-05 20:04 | 40.84052 | -2.00307 | 22947 ft | 316 kts | 230° |
| 2026-05-05 20:04 | 40.82414 | -2.02230 | 22517 ft | 314 kts | 229° |
| 2026-05-05 20:05 | 40.80781 | -2.04135 | 22081 ft | 313 kts | 229° |
| 2026-05-05 20:05 | 40.79153 | -2.06031 | 21742 ft | 309 kts | 228° |
| 2026-05-05 20:05 | 40.77566 | -2.07871 | 21554 ft | 300 kts | 228° |
| 2026-05-05 20:05 | 40.76009 | -2.09676 | 21214 ft | 296 kts | 228° |
| 2026-05-05 20:06 | 40.74599 | -2.11604 | 20803 ft | 289 kts | 239° |
| 2026-05-05 20:06 | 40.73642 | -2.13856 | 20379 ft | 284 kts | 252° |
| 2026-05-05 20:06 | 40.73144 | -2.16348 | 19960 ft | 281 kts | 264° |
| 2026-05-05 20:06 | 40.73136 | -2.18926 | 19627 ft | 283 kts | 277° |
| 2026-05-05 20:07 | 40.73443 | -2.21506 | 19393 ft | 286 kts | 278° |
| 2026-05-05 20:07 | 40.73755 | -2.24098 | 19171 ft | 287 kts | 278° |
| 2026-05-05 20:07 | 40.74066 | -2.26704 | 18947 ft | 288 kts | 278° |
| 2026-05-05 20:07 | 40.74377 | -2.29316 | 18716 ft | 289 kts | 279° |
| 2026-05-05 20:08 | 40.74689 | -2.31934 | 18503 ft | 290 kts | 279° |
| 2026-05-05 20:08 | 40.75003 | -2.34569 | 18269 ft | 291 kts | 279° |
| 2026-05-05 20:08 | 40.75316 | -2.37168 | 18028 ft | 291 kts | 279° |
| 2026-05-05 20:08 | 40.75630 | -2.39795 | 17800 ft | 290 kts | 279° |
| 2026-05-05 20:09 | 40.75942 | -2.42424 | 17577 ft | 290 kts | 279° |
| 2026-05-05 20:09 | 40.76251 | -2.45045 | 17350 ft | 289 kts | 279° |
| 2026-05-05 20:09 | 40.76560 | -2.47642 | 17158 ft | 284 kts | 279° |
| 2026-05-05 20:09 | 40.76861 | -2.50177 | 16978 ft | 277 kts | 279° |
| 2026-05-05 20:10 | 40.77157 | -2.52680 | 16708 ft | 275 kts | 279° |
| 2026-05-05 20:10 | 40.77448 | -2.55164 | 16490 ft | 273 kts | 279° |
| 2026-05-05 20:10 | 40.77738 | -2.57639 | 16282 ft | 272 kts | 278° |
| 2026-05-05 20:10 | 40.78011 | -2.60069 | 16074 ft | 272 kts | 275° |
| 2026-05-05 20:11 | 40.77972 | -2.62550 | 15864 ft | 271 kts | 262° |
| 2026-05-05 20:11 | 40.77460 | -2.64942 | 15655 ft | 272 kts | 248° |
| 2026-05-05 20:11 | 40.76500 | -2.67100 | 15442 ft | 275 kts | 234° |
| 2026-05-05 20:11 | 40.75193 | -2.68945 | 15230 ft | 276 kts | 228° |
| 2026-05-05 20:12 | 40.73846 | -2.70734 | 15018 ft | 275 kts | 228° |
| 2026-05-05 20:12 | 40.72500 | -2.72523 | 14805 ft | 274 kts | 228° |
| 2026-05-05 20:12 | 40.71159 | -2.74308 | 14594 ft | 274 kts | 228° |
| 2026-05-05 20:12 | 40.69821 | -2.76090 | 14372 ft | 273 kts | 228° |
| 2026-05-05 20:13 | 40.68489 | -2.77861 | 14262 ft | 272 kts | 228° |
| 2026-05-05 20:13 | 40.67173 | -2.79609 | 14143 ft | 272 kts | 228° |
| 2026-05-05 20:13 | 40.65829 | -2.81359 | 14022 ft | 273 kts | 223° |
| 2026-05-05 20:13 | 40.64261 | -2.82788 | 13832 ft | 274 kts | 214° |
| 2026-05-05 20:14 | 40.62660 | -2.84078 | 13676 ft | 267 kts | 214° |
| 2026-05-05 20:14 | 40.61085 | -2.85344 | 13357 ft | 264 kts | 214° |
| 2026-05-05 20:14 | 40.59532 | -2.86595 | 13080 ft | 260 kts | 214° |
| 2026-05-05 20:14 | 40.57992 | -2.87832 | 12857 ft | 258 kts | 214° |
| 2026-05-05 20:15 | 40.56459 | -2.89063 | 12648 ft | 258 kts | 214° |
| 2026-05-05 20:15 | 40.54933 | -2.90291 | 12429 ft | 257 kts | 214° |
| 2026-05-05 20:15 | 40.53433 | -2.91498 | 12200 ft | 256 kts | 214° |
| 2026-05-05 20:15 | 40.51920 | -2.92717 | 11978 ft | 255 kts | 214° |
| 2026-05-05 20:16 | 40.50414 | -2.93930 | 11744 ft | 254 kts | 214° |
| 2026-05-05 20:16 | 40.48910 | -2.95137 | 11527 ft | 252 kts | 214° |
| 2026-05-05 20:16 | 40.47415 | -2.96338 | 11305 ft | 252 kts | 214° |
| 2026-05-05 20:16 | 40.45923 | -2.97532 | 11082 ft | 251 kts | 214° |
| 2026-05-05 20:17 | 40.44436 | -2.98721 | 10865 ft | 250 kts | 214° |
| 2026-05-05 20:17 | 40.42953 | -2.99908 | 10639 ft | 250 kts | 214° |
| 2026-05-05 20:17 | 40.41471 | -3.01097 | 10412 ft | 249 kts | 214° |
| 2026-05-05 20:17 | 40.39996 | -3.02279 | 10208 ft | 248 kts | 214° |
| 2026-05-05 20:18 | 40.38544 | -3.03440 | 9980 ft | 247 kts | 214° |
| 2026-05-05 20:18 | 40.37076 | -3.04614 | 9739 ft | 247 kts | 214° |
| 2026-05-05 20:18 | 40.35608 | -3.05787 | 9522 ft | 247 kts | 214° |
| 2026-05-05 20:18 | 40.34141 | -3.06960 | 9298 ft | 247 kts | 214° |
| 2026-05-05 20:19 | 40.32674 | -3.08132 | 9073 ft | 247 kts | 214° |
| 2026-05-05 20:19 | 40.31207 | -3.09301 | 8856 ft | 247 kts | 214° |
| 2026-05-05 20:19 | 40.29744 | -3.10465 | 8622 ft | 246 kts | 214° |
| 2026-05-05 20:19 | 40.28285 | -3.11630 | 8414 ft | 246 kts | 216° |
| 2026-05-05 20:20 | 40.27043 | -3.13113 | 8191 ft | 240 kts | 238° |
| 2026-05-05 20:20 | 40.26355 | -3.15070 | 7981 ft | 236 kts | 259° |
| 2026-05-05 20:20 | 40.26283 | -3.17133 | 7814 ft | 226 kts | 279° |
| 2026-05-05 20:20 | 40.26548 | -3.19118 | 7693 ft | 218 kts | 281° |
| 2026-05-05 20:21 | 40.26805 | -3.21060 | 7439 ft | 218 kts | 281° |
| 2026-05-05 20:21 | 40.27063 | -3.23019 | 7183 ft | 218 kts | 281° |
| 2026-05-05 20:21 | 40.27319 | -3.24966 | 6986 ft | 215 kts | 281° |
| 2026-05-05 20:21 | 40.27567 | -3.26866 | 6855 ft | 208 kts | 281° |
| 2026-05-05 20:22 | 40.27807 | -3.28705 | 6733 ft | 202 kts | 282° |
| 2026-05-05 20:22 | 40.28046 | -3.30529 | 6474 ft | 204 kts | 282° |
| 2026-05-05 20:22 | 40.28420 | -3.32299 | 6253 ft | 201 kts | 296° |
| 2026-05-05 20:22 | 40.29123 | -3.33819 | 6064 ft | 196 kts | 311° |
| 2026-05-05 20:23 | 40.30002 | -3.35165 | 5896 ft | 194 kts | 311° |
| 2026-05-05 20:23 | 40.30884 | -3.36522 | 5714 ft | 196 kts | 311° |
| 2026-05-05 20:23 | 40.31770 | -3.37882 | 5544 ft | 196 kts | 314° |
| 2026-05-05 20:23 | 40.32810 | -3.38981 | 5439 ft | 190 kts | 324° |
| 2026-05-05 20:24 | 40.33869 | -3.39997 | 5269 ft | 185 kts | 323° |
| 2026-05-05 20:24 | 40.34874 | -3.40995 | 5021 ft | 178 kts | 323° |
| 2026-05-05 20:24 | 40.35844 | -3.41969 | 4794 ft | 174 kts | 323° |
| 2026-05-05 20:24 | 40.36795 | -3.42929 | 4563 ft | 172 kts | 323° |
| 2026-05-05 20:25 | 40.37736 | -3.43879 | 4326 ft | 169 kts | 323° |
| 2026-05-05 20:25 | 40.38660 | -3.44813 | 4103 ft | 167 kts | 323° |
| 2026-05-05 20:25 | 40.39556 | -3.45719 | 3888 ft | 160 kts | 323° |
| 2026-05-05 20:25 | 40.40413 | -3.46585 | 3675 ft | 156 kts | 323° |
| 2026-05-05 20:26 | 40.41258 | -3.47440 | 3494 ft | 146 kts | 323° |
| 2026-05-05 20:26 | 40.42046 | -3.48238 | 3278 ft | 140 kts | 323° |
| 2026-05-05 20:26 | 40.42820 | -3.49021 | 3043 ft | 142 kts | 322° |
| 2026-05-05 20:26 | 40.43597 | -3.49798 | 2855 ft | 141 kts | 321° |
| 2026-05-05 20:27 | 40.44365 | -3.50576 | 2695 ft | 138 kts | 320° |
| 2026-05-05 20:27 | 40.45110 | -3.51354 | 2520 ft | 136 kts | 322° |
| 2026-05-05 20:27 | 40.45869 | -3.52119 | 2321 ft | 139 kts | 322° |
| 2026-05-05 20:27 | 40.46624 | -3.52890 | 2199 ft | 137 kts | 322° |
| 2026-05-05 20:28 | 40.47379 | -3.53650 | 2029 ft | 137 kts | 322° |
| 2026-05-05 20:28 | 40.48127 | -3.54397 | 1935 ft | 128 kts | 322° |
| 2026-05-05 20:28 | 40.48700 | -3.54992 | 1948 ft | 82 kts | 322° |
| 2026-05-05 20:28 | 40.49034 | -3.55330 | 1954 ft | 45 kts | 322° |
| 2026-05-05 20:29 | 40.49207 | -3.55581 | 1959 ft | 31 kts | 295° |
| 2026-05-05 20:29 | 40.49273 | -3.55790 | 1964 ft | 17 kts | 292° |
| 2026-05-05 20:29 | 40.49288 | -3.55838 | 1965 ft | 1 kts | 292° |
| 2026-05-05 20:29 | 40.49291 | -3.55847 | 1963 ft | 4 kts | 291° |
| 2026-05-05 20:30 | 40.49300 | -3.55935 | 1960 ft | 12 kts | 268° |
| 2026-05-05 20:30 | 40.49298 | -3.56043 | 1959 ft | 11 kts | 269° |
| 2026-05-05 20:30 | 40.49297 | -3.56147 | 1959 ft | 10 kts | 271° |
| 2026-05-05 20:30 | 40.49293 | -3.56213 | 1961 ft | 6 kts | 246° |
| 2026-05-05 20:31 | 40.49276 | -3.56235 | 1964 ft | 0 kts | 215° |
| 2026-05-05 20:31 | 40.49273 | -3.56240 | 1963 ft | 4 kts | 232° |
| 2026-05-05 20:31 | 40.49270 | -3.56267 | 1962 ft | 0 kts | 273° |
| 2026-05-05 20:31 | 40.49270 | -3.56269 | 1962 ft | 3 kts | 273° |
| 2026-05-05 20:32 | 40.49271 | -3.56334 | 1964 ft | 7 kts | 270° |
| 2026-05-05 20:32 | 40.49271 | -3.56353 | 1964 ft | 0 kts | 270° |